Time;durP1;ratioP1;P1;durP2;ratioP2;P2;SDS_P1;SDS_P2;PMS_P1;PMS_P2;Temp;Humidity;BMP_temperature;BMP_pressure;BME280_temperature;BME280_humidity;BME280_pressure;Samples;Min_cycle;Max_cycle;Signal;HPM_P1;HPM_P2
2023/08/17 00:02:00;;;;;;;8.32;3.10;;;18.80;99.90;;;;;;5001811;28;20501;-75
2023/08/17 00:04:26;;;;;;;7.95;3.40;;;18.80;99.90;;;;;;4998560;28;20122;-75
2023/08/17 00:06:51;;;;;;;7.45;3.53;;;18.80;99.90;;;;;;5001618;28;20018;-75
2023/08/17 00:09:17;;;;;;;8.10;3.30;;;18.80;99.90;;;;;;5006792;28;20433;-76
2023/08/17 00:11:43;;;;;;;8.80;3.42;;;18.80;99.90;;;;;;4995078;28;20029;-75
2023/08/17 00:14:10;;;;;;;9.40;2.97;;;18.80;99.90;;;;;;5002738;28;20022;-76
2023/08/17 00:16:35;;;;;;;11.40;2.97;;;18.80;99.90;;;;;;5003622;28;20030;-75
2023/08/17 00:19:02;;;;;;;7.95;3.05;;;18.80;99.90;;;;;;4991419;28;20089;-76
2023/08/17 00:21:27;;;;;;;7.70;3.17;;;18.80;99.90;;;;;;4995120;28;20018;-76
2023/08/17 00:23:53;;;;;;;7.25;3.22;;;18.70;99.90;;;;;;5013991;28;20026;-75
2023/08/17 00:26:20;;;;;;;8.40;3.17;;;18.70;99.90;;;;;;4999042;28;20034;-75
2023/08/17 00:28:45;;;;;;;6.38;2.97;;;18.70;99.90;;;;;;5002437;28;20121;-75
2023/08/17 00:31:11;;;;;;;6.32;3.15;;;18.70;99.90;;;;;;5009496;28;20105;-75
2023/08/17 00:33:37;;;;;;;7.03;2.70;;;18.70;99.90;;;;;;4999446;28;20014;-75
2023/08/17 00:36:03;;;;;;;7.38;2.50;;;18.70;99.90;;;;;;5000350;28;20030;-75
2023/08/17 00:38:29;;;;;;;7.25;2.90;;;18.60;99.90;;;;;;4995446;28;20105;-75
2023/08/17 00:40:55;;;;;;;7.47;2.72;;;18.60;99.90;;;;;;5009202;28;20404;-75
2023/08/17 00:43:21;;;;;;;5.22;2.70;;;18.60;99.90;;;;;;4996925;28;20076;-75
2023/08/17 00:45:47;;;;;;;8.18;2.55;;;18.60;99.90;;;;;;4997899;28;20026;-75
2023/08/17 00:48:13;;;;;;;8.77;2.65;;;18.60;99.90;;;;;;4997932;28;20030;-75
2023/08/17 00:50:39;;;;;;;6.53;2.80;;;18.60;99.90;;;;;;5010050;28;20384;-75
2023/08/17 00:53:06;;;;;;;9.15;2.90;;;18.50;99.90;;;;;;4997922;28;20378;-75
2023/08/17 00:55:33;;;;;;;7.07;2.55;;;18.50;99.90;;;;;;4997893;28;20370;-75
2023/08/17 00:57:59;;;;;;;7.85;2.60;;;18.50;99.90;;;;;;4998556;28;20115;-75
2023/08/17 01:00:28;;;;;;;8.73;2.70;;;18.50;99.90;;;;;;4996109;28;20509;-75
2023/08/17 01:02:55;;;;;;;6.80;2.83;;;18.40;99.90;;;;;;4995808;28;20026;-75
2023/08/17 01:05:21;;;;;;;9.43;2.60;;;18.40;99.90;;;;;;5000002;28;20041;-76
2023/08/17 01:07:48;;;;;;;7.07;2.50;;;18.40;99.90;;;;;;4995410;28;20058;-75
2023/08/17 01:10:14;;;;;;;10.75;2.50;;;18.40;99.90;;;;;;4995850;28;20026;-75
2023/08/17 01:13:04;;;;;;;10.15;2.70;;;18.40;99.90;;;;;;5001684;28;20073;-76
2023/08/17 01:15:40;;;;;;;7.78;2.50;;;18.30;99.90;;;;;;4996849;28;20026;-76
2023/08/17 01:18:18;;;;;;;6.10;2.67;;;18.40;99.90;;;;;;5010040;28;20022;-76
2023/08/17 01:20:46;;;;;;;5.43;2.47;;;18.40;99.90;;;;;;5025359;28;20442;-75
2023/08/17 01:23:11;;;;;;;6.03;2.30;;;18.40;99.90;;;;;;5009174;28;20031;-75
2023/08/17 01:25:37;;;;;;;7.20;2.67;;;18.40;99.90;;;;;;4997778;28;20073;-75
2023/08/17 01:28:04;;;;;;;10.77;2.95;;;18.40;99.90;;;;;;4997674;28;20031;-75
2023/08/17 01:30:37;;;;;;;7.50;2.50;;;18.30;99.90;;;;;;4999961;28;20019;-75
2023/08/17 01:33:08;;;;;;;7.60;2.50;;;18.30;99.90;;;;;;4995846;28;20026;-75
2023/08/17 01:35:44;;;;;;;5.65;2.67;;;18.30;99.90;;;;;;4990858;28;20034;-76
2023/08/17 01:38:17;;;;;;;6.50;2.58;;;18.30;99.90;;;;;;4993913;28;20030;-75
2023/08/17 01:40:47;;;;;;;5.13;2.03;;;18.30;99.90;;;;;;4997309;28;20105;-75
2023/08/17 01:43:14;;;;;;;6.57;2.70;;;18.30;99.90;;;;;;5013318;28;20034;-75
2023/08/17 01:45:40;;;;;;;7.25;2.67;;;18.20;99.90;;;;;;5003666;28;20022;-75
2023/08/17 01:48:06;;;;;;;8.20;2.80;;;18.20;99.90;;;;;;5015561;28;20497;-75
2023/08/17 01:50:31;;;;;;;7.57;2.63;;;18.20;99.90;;;;;;5011683;28;20045;-75
2023/08/17 01:52:57;;;;;;;6.32;2.60;;;18.20;99.90;;;;;;4993371;28;20023;-75
2023/08/17 01:55:23;;;;;;;5.78;2.60;;;18.20;99.90;;;;;;4994399;28;20514;-76
2023/08/17 01:57:49;;;;;;;4.80;2.33;;;18.20;99.90;;;;;;4993231;28;20565;-75
2023/08/17 02:00:15;;;;;;;8.35;2.70;;;18.20;99.90;;;;;;4999528;28;20097;-75
2023/08/17 02:02:41;;;;;;;8.15;2.65;;;18.20;99.90;;;;;;5005646;28;20110;-76
2023/08/17 02:05:08;;;;;;;6.95;2.70;;;18.20;99.90;;;;;;4993569;28;20114;-75
2023/08/17 02:07:33;;;;;;;6.38;2.60;;;18.20;99.90;;;;;;4992767;28;20045;-75
2023/08/17 02:09:59;;;;;;;5.60;2.80;;;18.20;99.90;;;;;;5011762;28;20026;-74
2023/08/17 02:12:25;;;;;;;7.32;2.78;;;18.20;99.90;;;;;;5007087;28;20026;-75
2023/08/17 02:14:50;;;;;;;9.02;2.80;;;18.20;99.90;;;;;;5000958;28;20026;-75
2023/08/17 02:17:16;;;;;;;8.13;2.75;;;18.20;99.90;;;;;;5002976;28;20473;-75
2023/08/17 02:19:47;;;;;;;7.50;2.50;;;18.10;99.90;;;;;;4997807;28;20057;-75
2023/08/17 02:22:13;;;;;;;6.13;2.88;;;18.10;99.90;;;;;;5006385;28;20014;-75
2023/08/17 02:24:39;;;;;;;12.63;3.40;;;18.10;99.90;;;;;;4998549;28;20073;-75
2023/08/17 02:27:04;;;;;;;6.45;2.97;;;18.00;99.90;;;;;;4993361;28;20477;-75
2023/08/17 02:29:30;;;;;;;8.68;2.78;;;18.00;99.90;;;;;;5008535;28;20026;-75
2023/08/17 02:31:56;;;;;;;7.03;2.83;;;18.00;99.90;;;;;;4997158;28;20022;-75
2023/08/17 02:34:21;;;;;;;8.35;2.90;;;18.00;99.90;;;;;;4994693;28;20536;-75
2023/08/17 02:36:47;;;;;;;5.88;2.60;;;18.00;99.90;;;;;;5001577;28;20109;-75
2023/08/17 02:39:13;;;;;;;7.07;3.17;;;18.00;99.90;;;;;;5011525;28;20463;-75
2023/08/17 02:41:39;;;;;;;6.13;2.75;;;18.00;99.90;;;;;;5010741;28;20017;-75
2023/08/17 02:44:04;;;;;;;6.63;2.60;;;18.00;99.90;;;;;;4997574;28;20056;-75
2023/08/17 02:46:30;;;;;;;7.32;3.00;;;17.90;99.90;;;;;;4999855;28;20058;-74
2023/08/17 02:48:56;;;;;;;6.75;2.67;;;17.90;99.90;;;;;;4991174;28;20081;-75
2023/08/17 02:51:21;;;;;;;5.03;2.58;;;17.90;99.90;;;;;;5001616;28;20022;-75
2023/08/17 02:53:47;;;;;;;6.82;2.92;;;17.90;99.90;;;;;;5009475;28;20072;-75
2023/08/17 02:56:13;;;;;;;7.03;2.90;;;17.80;99.90;;;;;;5000111;28;20543;-75
2023/08/17 02:58:42;;;;;;;9.00;3.00;;;17.80;99.90;;;;;;4997325;28;20508;-75
2023/08/17 03:01:08;;;;;;;6.00;3.05;;;17.70;99.90;;;;;;4981364;28;20027;-75
2023/08/17 03:03:34;;;;;;;9.80;2.88;;;17.70;99.90;;;;;;4994973;28;20070;-75
2023/08/17 03:06:01;;;;;;;5.75;2.85;;;17.70;99.90;;;;;;5001320;28;20018;-75
2023/08/17 03:08:26;;;;;;;8.50;3.05;;;17.70;99.90;;;;;;5002078;28;20034;-75
2023/08/17 03:10:52;;;;;;;6.70;2.88;;;17.70;99.90;;;;;;5007643;28;20029;-75
2023/08/17 03:13:18;;;;;;;6.25;3.30;;;17.70;99.90;;;;;;5018844;28;20465;-75
2023/08/17 03:15:43;;;;;;;7.95;3.22;;;17.70;99.90;;;;;;5001283;28;20121;-76
2023/08/17 03:18:09;;;;;;;9.23;3.20;;;17.70;99.90;;;;;;5013666;28;20030;-75
2023/08/17 03:20:35;;;;;;;10.50;3.22;;;17.70;99.90;;;;;;4993307;28;20033;-75
2023/08/17 03:23:00;;;;;;;8.27;3.42;;;17.70;99.90;;;;;;4995810;28;20377;-76
2023/08/17 03:25:26;;;;;;;10.25;3.50;;;17.70;99.90;;;;;;4993035;28;20030;-76
2023/08/17 03:27:52;;;;;;;5.88;3.15;;;17.70;99.90;;;;;;4990988;28;20018;-75
2023/08/17 03:30:17;;;;;;;6.97;3.13;;;17.70;99.90;;;;;;4985577;28;20035;-75
2023/08/17 03:32:43;;;;;;;8.90;2.90;;;17.70;99.90;;;;;;4998898;28;20496;-75
2023/08/17 03:35:09;;;;;;;9.90;3.38;;;17.70;99.90;;;;;;4992264;28;20062;-75
2023/08/17 03:37:34;;;;;;;6.47;3.08;;;17.70;99.90;;;;;;4984827;28;20062;-76
2023/08/17 03:40:00;;;;;;;7.75;2.90;;;17.70;99.90;;;;;;4990017;28;20473;-75
2023/08/17 03:42:26;;;;;;;8.55;3.40;;;17.70;99.90;;;;;;5010093;28;20025;-75
2023/08/17 03:44:52;;;;;;;8.13;3.10;;;17.70;99.90;;;;;;4995789;28;20058;-75
2023/08/17 03:47:19;;;;;;;6.00;3.20;;;17.70;99.90;;;;;;4991646;28;20022;-75
2023/08/17 03:49:44;;;;;;;8.35;3.30;;;17.70;99.90;;;;;;4991542;28;20072;-75
2023/08/17 03:52:10;;;;;;;5.47;3.10;;;17.70;99.90;;;;;;5001522;28;20018;-75
2023/08/17 03:54:36;;;;;;;6.15;3.60;;;17.70;99.90;;;;;;5000437;28;20520;-75
2023/08/17 03:57:02;;;;;;;9.45;3.33;;;17.60;99.90;;;;;;5007554;28;20037;-75
2023/08/17 03:59:28;;;;;;;10.82;3.65;;;17.60;99.90;;;;;;5001728;28;20073;-75
2023/08/17 04:01:54;;;;;;;10.05;3.47;;;17.60;99.90;;;;;;4992804;28;20034;-75
2023/08/17 04:04:19;;;;;;;8.13;3.20;;;17.60;99.90;;;;;;4991545;28;20113;-75
2023/08/17 04:06:45;;;;;;;6.00;3.28;;;17.60;99.90;;;;;;5009345;28;20029;-75
2023/08/17 04:09:11;;;;;;;8.25;3.47;;;17.60;99.90;;;;;;4996136;28;20015;-75
2023/08/17 04:11:36;;;;;;;6.70;3.22;;;17.60;99.90;;;;;;4991295;28;20169;-75
2023/08/17 04:14:03;;;;;;;6.18;3.20;;;17.50;99.90;;;;;;5000929;28;20144;-76
2023/08/17 04:16:29;;;;;;;6.65;3.20;;;17.60;99.90;;;;;;4994483;28;20029;-76
2023/08/17 04:18:55;;;;;;;8.63;3.40;;;17.50;99.90;;;;;;4992041;28;20035;-75
2023/08/17 04:21:21;;;;;;;8.00;3.15;;;17.50;99.90;;;;;;4990088;28;20512;-75
2023/08/17 04:23:46;;;;;;;10.68;4.00;;;17.50;99.90;;;;;;4993545;28;20025;-75
2023/08/17 04:26:12;;;;;;;5.82;2.92;;;17.50;99.90;;;;;;4990880;28;20085;-76
2023/08/17 04:28:38;;;;;;;8.35;3.20;;;17.50;99.90;;;;;;4995964;28;20068;-75
2023/08/17 04:31:04;;;;;;;7.28;2.58;;;17.50;99.90;;;;;;4991392;28;20018;-76
2023/08/17 04:33:30;;;;;;;7.60;3.05;;;17.40;99.90;;;;;;5012558;28;20445;-75
2023/08/17 04:35:55;;;;;;;6.07;2.97;;;17.40;99.90;;;;;;4989271;28;20504;-75
2023/08/17 04:38:21;;;;;;;8.15;2.58;;;17.40;99.90;;;;;;5002038;28;20465;-72
2023/08/17 04:40:47;;;;;;;9.95;3.35;;;17.40;99.90;;;;;;4986697;28;20108;-72
2023/08/17 04:43:13;;;;;;;7.07;3.28;;;17.40;99.90;;;;;;4994136;28;20033;-72
2023/08/17 04:45:39;;;;;;;9.18;2.92;;;17.50;99.90;;;;;;5005690;28;20381;-72
2023/08/17 04:48:06;;;;;;;11.73;2.60;;;17.50;99.90;;;;;;5005152;28;20037;-72
2023/08/17 04:50:32;;;;;;;6.63;2.90;;;17.50;99.90;;;;;;5001900;28;20101;-72
2023/08/17 04:52:58;;;;;;;7.50;2.75;;;17.50;99.90;;;;;;4998453;28;20022;-72
2023/08/17 04:55:23;;;;;;;6.85;2.83;;;17.50;99.90;;;;;;4999231;28;20080;-72
2023/08/17 04:57:49;;;;;;;8.75;2.95;;;17.50;99.90;;;;;;4999610;28;20030;-73
2023/08/17 05:00:16;;;;;;;6.15;2.75;;;17.60;99.90;;;;;;4999695;28;20412;-72
2023/08/17 05:02:41;;;;;;;5.43;2.70;;;17.60;99.90;;;;;;5004808;28;20125;-73
2023/08/17 05:05:09;;;;;;;9.88;2.80;;;17.60;99.90;;;;;;4994858;28;20509;-73
2023/08/17 05:07:35;;;;;;;11.70;2.90;;;17.70;99.90;;;;;;4987490;28;20027;-73
2023/08/17 05:10:01;;;;;;;6.40;2.85;;;17.70;99.90;;;;;;4994017;28;20018;-72
2023/08/17 05:12:27;;;;;;;6.65;2.67;;;17.70;99.90;;;;;;4995745;28;20046;-73
2023/08/17 05:14:53;;;;;;;8.60;2.40;;;17.70;99.90;;;;;;4994031;28;20110;-73
2023/08/17 05:17:19;;;;;;;6.65;2.45;;;17.70;99.90;;;;;;4997057;28;20022;-73
2023/08/17 05:19:44;;;;;;;8.85;2.80;;;17.70;99.90;;;;;;5000640;28;20026;-73
2023/08/17 05:22:12;;;;;;;7.00;2.67;;;17.70;99.90;;;;;;4992637;28;20030;-73
2023/08/17 05:24:38;;;;;;;8.40;3.25;;;17.80;99.90;;;;;;5005234;28;20021;-75
2023/08/17 05:27:05;;;;;;;8.27;2.83;;;17.80;99.90;;;;;;5008021;28;20376;-76
2023/08/17 05:29:33;;;;;;;6.28;2.78;;;17.80;99.90;;;;;;5006544;28;20030;-75
2023/08/17 05:31:59;;;;;;;10.88;3.03;;;17.80;99.90;;;;;;5004552;28;20691;-76
2023/08/17 05:34:24;;;;;;;6.82;2.47;;;17.80;99.90;;;;;;5001924;28;20030;-76
2023/08/17 05:36:50;;;;;;;7.57;2.58;;;17.80;99.90;;;;;;4998734;28;20025;-76
2023/08/17 05:39:16;;;;;;;6.90;2.50;;;17.80;99.90;;;;;;5001857;28;20490;-76
2023/08/17 05:41:41;;;;;;;7.07;2.30;;;17.80;99.90;;;;;;4984741;28;20038;-75
2023/08/17 05:44:07;;;;;;;7.03;2.20;;;17.80;99.90;;;;;;4994473;28;20026;-76
2023/08/17 05:46:33;;;;;;;7.93;2.38;;;17.70;99.90;;;;;;4993905;28;20456;-75
2023/08/17 05:49:00;;;;;;;6.82;2.45;;;17.80;99.90;;;;;;4984322;28;20472;-76
2023/08/17 05:51:26;;;;;;;7.13;2.40;;;17.70;99.90;;;;;;4989726;28;20303;-76
2023/08/17 05:53:51;;;;;;;7.45;2.47;;;17.80;99.90;;;;;;4996315;28;20044;-76
2023/08/17 05:56:17;;;;;;;8.32;2.70;;;17.80;99.90;;;;;;4996047;28;20358;-76
2023/08/17 05:58:42;;;;;;;6.90;2.00;;;17.80;99.90;;;;;;4988860;28;20360;-76
2023/08/17 06:01:10;;;;;;;6.70;2.30;;;17.80;99.90;;;;;;4982859;28;20026;-76
2023/08/17 06:03:36;;;;;;;5.32;2.20;;;17.90;99.90;;;;;;4998419;28;20018;-76
2023/08/17 06:06:03;;;;;;;5.55;2.05;;;17.90;99.90;;;;;;4986085;28;20069;-76
2023/08/17 06:08:29;;;;;;;4.15;2.13;;;18.00;99.90;;;;;;4992684;28;20029;-75
2023/08/17 06:10:55;;;;;;;6.10;2.67;;;18.00;99.90;;;;;;5004971;28;20037;-75
2023/08/17 06:13:21;;;;;;;9.57;2.55;;;18.10;99.90;;;;;;4993209;28;20084;-75
2023/08/17 06:15:47;;;;;;;4.75;2.08;;;18.10;99.90;;;;;;4995366;28;20042;-76
2023/08/17 06:18:13;;;;;;;6.10;2.20;;;18.10;99.90;;;;;;4994273;28;20478;-75
2023/08/17 06:20:39;;;;;;;6.90;2.20;;;18.20;99.90;;;;;;5000800;28;20029;-75
2023/08/17 06:23:04;;;;;;;4.93;2.55;;;18.30;99.90;;;;;;5001081;28;20026;-75
2023/08/17 06:25:30;;;;;;;8.60;2.47;;;18.30;99.90;;;;;;5001752;28;20081;-76
2023/08/17 06:27:56;;;;;;;8.50;2.22;;;18.30;99.90;;;;;;4996437;28;20037;-75
2023/08/17 06:30:22;;;;;;;7.00;1.92;;;18.30;99.90;;;;;;4997852;28;20093;-76
2023/08/17 06:32:48;;;;;;;7.60;2.22;;;18.40;99.90;;;;;;5010782;28;20096;-76
2023/08/17 06:35:13;;;;;;;5.45;2.40;;;18.40;99.90;;;;;;5010314;28;20037;-76
2023/08/17 06:37:39;;;;;;;8.88;2.40;;;18.50;99.90;;;;;;4999962;28;20477;-76
2023/08/17 06:40:06;;;;;;;5.72;2.50;;;18.50;99.90;;;;;;4991995;28;20023;-75
2023/08/17 06:42:31;;;;;;;5.95;2.50;;;18.50;99.90;;;;;;4992700;28;20026;-76
2023/08/17 06:44:57;;;;;;;6.82;2.30;;;18.60;99.90;;;;;;4994663;28;20022;-75
2023/08/17 06:47:23;;;;;;;6.13;2.45;;;18.60;99.90;;;;;;5009543;28;20113;-76
2023/08/17 06:49:49;;;;;;;7.20;2.50;;;18.60;99.90;;;;;;4997988;28;20134;-76
2023/08/17 06:52:14;;;;;;;6.10;2.25;;;18.60;99.90;;;;;;4986493;28;20053;-76
2023/08/17 06:54:40;;;;;;;8.35;2.42;;;18.60;99.90;;;;;;5009332;28;20026;-76
2023/08/17 06:57:06;;;;;;;5.07;2.10;;;18.60;99.90;;;;;;4995717;28;20030;-76
2023/08/17 06:59:33;;;;;;;8.15;2.50;;;18.60;99.90;;;;;;5011286;28;20050;-76
2023/08/17 07:01:59;;;;;;;7.75;2.28;;;18.60;99.90;;;;;;4991050;28;20022;-76
2023/08/17 07:04:25;;;;;;;6.53;2.17;;;18.70;99.90;;;;;;4991286;28;20022;-76
2023/08/17 07:06:50;;;;;;;7.05;2.53;;;18.70;99.90;;;;;;4996574;28;20041;-76
2023/08/17 07:09:16;;;;;;;6.72;2.33;;;18.80;99.90;;;;;;4995233;28;20289;-76
2023/08/17 07:11:41;;;;;;;7.15;2.35;;;18.90;99.90;;;;;;4988611;28;20023;-76
2023/08/17 07:14:07;;;;;;;4.60;2.38;;;18.90;99.90;;;;;;5002171;28;20033;-76
2023/08/17 07:16:33;;;;;;;8.15;2.88;;;19.00;99.90;;;;;;4991060;28;20035;-76
2023/08/17 07:18:59;;;;;;;10.60;2.83;;;19.10;99.90;;;;;;4991286;28;20021;-77
2023/08/17 07:21:24;;;;;;;9.88;3.05;;;19.20;99.90;;;;;;5003161;28;20049;-76
2023/08/17 07:23:50;;;;;;;8.68;2.60;;;19.20;99.90;;;;;;4993280;28;20026;-76
2023/08/17 07:26:18;;;;;;;9.70;2.50;;;19.30;99.90;;;;;;4999792;28;20038;-76
2023/08/17 07:28:44;;;;;;;9.50;2.60;;;19.40;99.90;;;;;;5000935;28;20030;-76
2023/08/17 07:31:10;;;;;;;7.53;2.90;;;19.40;99.90;;;;;;5006366;28;20022;-76
2023/08/17 07:33:36;;;;;;;9.38;3.00;;;19.50;99.90;;;;;;5016288;28;20056;-76
2023/08/17 07:36:02;;;;;;;7.95;2.88;;;19.60;99.90;;;;;;5004717;28;20041;-77
2023/08/17 07:38:28;;;;;;;6.75;2.63;;;19.70;99.90;;;;;;5003931;28;20018;-76
2023/08/17 07:40:55;;;;;;;5.53;2.40;;;19.70;99.90;;;;;;5002358;28;20075;-76
2023/08/17 07:43:20;;;;;;;7.72;2.50;;;19.80;99.90;;;;;;5005776;28;20014;-76
2023/08/17 07:46:01;;;;;;;9.68;2.38;;;19.80;99.90;;;;;;4999569;28;20079;-75
2023/08/17 07:48:27;;;;;;;6.28;2.00;;;19.90;99.90;;;;;;5004566;28;20165;-75
2023/08/17 07:50:53;;;;;;;6.82;1.80;;;20.00;99.90;;;;;;4989373;28;20109;-76
2023/08/17 07:53:19;;;;;;;8.60;2.40;;;20.10;99.90;;;;;;4989789;28;20682;-76
2023/08/17 07:55:45;;;;;;;5.65;1.65;;;20.20;99.90;;;;;;4997094;28;20037;-75
2023/08/17 07:58:11;;;;;;;12.93;1.90;;;20.30;99.90;;;;;;4995505;28;20065;-76
2023/08/17 08:00:37;;;;;;;5.72;1.90;;;20.50;99.90;;;;;;5002167;28;20042;-76
2023/08/17 08:03:03;;;;;;;7.65;2.03;;;20.60;99.90;;;;;;4993685;28;20484;-76
2023/08/17 08:05:29;;;;;;;6.75;2.00;;;20.70;99.90;;;;;;4986664;28;20030;-75
2023/08/17 08:07:55;;;;;;;7.03;1.92;;;20.80;99.90;;;;;;5000487;28;20500;-75
2023/08/17 08:10:20;;;;;;;5.40;1.80;;;20.80;99.90;;;;;;5006186;28;20022;-75
2023/08/17 08:12:46;;;;;;;6.18;2.10;;;20.80;99.90;;;;;;5006704;28;20196;-76
2023/08/17 08:15:12;;;;;;;9.05;2.17;;;20.80;99.90;;;;;;5009969;28;20022;-75
2023/08/17 08:17:37;;;;;;;6.78;1.65;;;20.70;99.90;;;;;;5017220;28;20050;-75
2023/08/17 08:20:04;;;;;;;7.18;1.88;;;20.60;99.90;;;;;;4997714;28;20041;-75
2023/08/17 08:22:30;;;;;;;5.53;1.80;;;20.70;99.90;;;;;;4991734;28;20084;-75
2023/08/17 08:24:56;;;;;;;8.60;1.80;;;20.70;99.90;;;;;;5003096;28;20504;-75
2023/08/17 08:27:22;;;;;;;7.22;1.90;;;20.80;99.90;;;;;;4990612;28;20018;-75
2023/08/17 08:29:47;;;;;;;8.40;1.95;;;20.80;99.90;;;;;;4999881;28;20049;-75
2023/08/17 08:32:13;;;;;;;3.70;1.83;;;20.80;99.90;;;;;;4996550;28;20466;-75
2023/08/17 08:34:39;;;;;;;7.75;1.67;;;20.80;99.90;;;;;;5002261;28;20451;-75
2023/08/17 08:37:04;;;;;;;9.45;2.53;;;20.80;99.90;;;;;;5000266;28;20097;-76
2023/08/17 08:39:30;;;;;;;10.75;2.58;;;20.90;99.90;;;;;;5006774;28;20073;-76
2023/08/17 08:41:56;;;;;;;9.75;1.92;;;21.00;99.90;;;;;;4998130;28;20073;-76
2023/08/17 08:44:22;;;;;;;6.13;2.15;;;21.10;99.90;;;;;;5011361;28;20030;-76
2023/08/17 08:46:48;;;;;;;5.53;1.92;;;21.30;99.90;;;;;;5004172;28;20113;-76
2023/08/17 08:49:19;;;;;;;8.85;2.08;;;21.40;99.90;;;;;;4992353;28;20034;-76
2023/08/17 08:51:50;;;;;;;4.65;1.75;;;21.50;99.90;;;;;;5004635;28;20027;-76
2023/08/17 08:54:22;;;;;;;9.05;2.17;;;21.60;99.90;;;;;;5011600;28;20040;-76
2023/08/17 08:57:02;;;;;;;5.57;1.95;;;21.70;99.90;;;;;;5009729;28;20026;-76
2023/08/17 08:59:29;;;;;;;5.18;1.90;;;21.90;99.90;;;;;;4993807;28;20053;-76
2023/08/17 09:01:57;;;;;;;6.80;2.53;;;22.00;99.90;;;;;;5004313;28;20018;-75
2023/08/17 09:04:23;;;;;;;8.95;1.85;;;22.10;99.90;;;;;;5006050;28;20092;-76
2023/08/17 09:06:50;;;;;;;8.52;2.10;;;22.20;99.90;;;;;;4994992;28;20038;-74
2023/08/17 09:09:18;;;;;;;8.80;1.80;;;22.40;99.90;;;;;;5007563;28;20109;-73
2023/08/17 09:11:43;;;;;;;7.63;1.80;;;22.50;99.90;;;;;;4996837;28;20030;-73
2023/08/17 09:14:09;;;;;;;4.22;1.80;;;22.60;99.90;;;;;;4994583;28;20026;-73
2023/08/17 09:16:35;;;;;;;6.25;1.98;;;22.70;99.90;;;;;;5003066;28;20053;-73
2023/08/17 09:19:01;;;;;;;4.80;1.80;;;22.90;99.90;;;;;;5004009;28;20065;-73
2023/08/17 09:21:31;;;;;;;9.27;1.60;;;23.00;99.90;;;;;;5004226;28;20018;-73
2023/08/17 09:23:57;;;;;;;6.07;1.45;;;23.20;99.90;;;;;;5006779;28;20030;-73
2023/08/17 09:26:23;;;;;;;5.57;1.73;;;23.30;99.90;;;;;;4996842;28;20528;-73
2023/08/17 09:28:50;;;;;;;6.13;1.70;;;23.40;99.90;;;;;;4997696;28;20117;-74
2023/08/17 09:31:19;;;;;;;3.20;1.70;;;23.50;99.90;;;;;;4991579;28;20034;-73
2023/08/17 09:33:49;;;;;;;6.43;1.70;;;23.60;99.90;;;;;;5004238;28;20018;-73
2023/08/17 09:36:15;;;;;;;8.43;1.70;;;23.70;99.90;;;;;;5008650;28;20052;-73
2023/08/17 09:38:41;;;;;;;5.72;1.63;;;23.80;99.90;;;;;;5003873;28;20256;-73
2023/08/17 09:41:07;;;;;;;4.43;1.83;;;24.00;99.90;;;;;;4996484;28;20018;-73
2023/08/17 09:43:33;;;;;;;6.72;1.85;;;24.00;99.90;;;;;;5012009;28;20109;-72
2023/08/17 09:46:01;;;;;;;4.93;1.73;;;24.00;99.90;;;;;;4992332;28;20037;-73
2023/08/17 09:48:27;;;;;;;7.03;1.90;;;23.90;99.90;;;;;;4998772;28;20617;-72
2023/08/17 09:50:56;;;;;;;6.68;1.70;;;24.00;99.90;;;;;;5001085;28;20030;-72
2023/08/17 09:53:22;;;;;;;7.75;1.88;;;24.00;99.90;;;;;;5000804;28;20109;-72
2023/08/17 09:55:48;;;;;;;8.38;2.03;;;24.00;99.90;;;;;;4998577;28;20102;-72
2023/08/17 09:58:17;;;;;;;8.02;1.65;;;24.00;99.90;;;;;;4994628;28;20022;-73
2023/08/17 10:00:46;;;;;;;6.53;1.70;;;24.10;99.90;;;;;;4996006;28;20042;-72
2023/08/17 10:03:14;;;;;;;5.78;1.80;;;24.10;99.90;;;;;;4994930;28;20310;-72
2023/08/17 10:05:42;;;;;;;7.03;1.85;;;24.10;99.90;;;;;;4993731;28;20037;-73
2023/08/17 10:08:10;;;;;;;5.82;1.90;;;24.10;99.90;;;;;;5005793;28;20262;-72
2023/08/17 10:10:41;;;;;;;7.85;1.98;;;24.10;99.90;;;;;;4997181;28;20041;-73
2023/08/17 10:13:13;;;;;;;5.65;1.80;;;24.10;99.90;;;;;;5008805;28;20109;-73
2023/08/17 10:15:48;;;;;;;7.25;2.22;;;24.00;99.90;;;;;;5005930;28;20029;-73
2023/08/17 10:18:14;;;;;;;;;;;24.00;99.90;;;;;;4997954;28;20029;-72
2023/08/17 10:20:42;;;;;;;5.20;2.00;;;24.00;99.90;;;;;;5007737;28;20003;-72
2023/08/17 10:23:34;;;;;;;7.78;2.60;;;23.90;99.90;;;;;;4997978;28;20018;-74
2023/08/17 10:26:04;;;;;;;9.80;2.17;;;23.90;99.90;;;;;;4990577;28;20038;-73
2023/08/17 10:28:32;;;;;;;8.38;2.53;;;23.80;99.90;;;;;;4984031;28;20026;-73
2023/08/17 10:30:58;;;;;;;8.98;2.58;;;23.90;99.90;;;;;;4996983;28;20113;-73
2023/08/17 10:33:25;;;;;;;7.30;2.30;;;23.80;99.90;;;;;;4999753;28;20057;-73
2023/08/17 10:35:51;;;;;;;5.22;2.45;;;23.80;99.90;;;;;;5000884;28;20030;-73
2023/08/17 10:38:17;;;;;;;8.55;2.35;;;23.70;99.90;;;;;;4982686;28;20150;-74
2023/08/17 10:40:43;;;;;;;4.93;2.50;;;23.70;99.90;;;;;;4991864;28;20058;-73
2023/08/17 10:43:09;;;;;;;5.88;2.50;;;23.80;99.90;;;;;;4992536;28;20030;-73
2023/08/17 10:45:38;;;;;;;10.00;2.70;;;23.70;99.90;;;;;;4993880;28;20026;-73
2023/08/17 10:48:09;;;;;;;10.13;3.08;;;23.60;99.90;;;;;;4996961;28;20105;-73
2023/08/17 10:50:36;;;;;;;6.47;2.30;;;23.60;99.90;;;;;;5004969;28;20105;-74
2023/08/17 10:53:10;;;;;;;9.90;2.90;;;23.60;99.90;;;;;;4999319;28;20467;-73
2023/08/17 10:55:39;;;;;;;7.45;3.03;;;23.80;99.90;;;;;;4996497;28;20055;-73
2023/08/17 10:58:08;;;;;;;8.10;2.95;;;24.00;99.90;;;;;;4998831;28;20030;-73
2023/08/17 11:00:38;;;;;;;7.47;2.40;;;24.20;99.90;;;;;;5010590;28;20054;-74
2023/08/17 11:03:09;;;;;;;8.35;2.85;;;24.20;99.90;;;;;;4999076;28;20045;-73
2023/08/17 11:05:46;;;;;;;6.07;2.45;;;24.30;99.90;;;;;;4989805;28;20382;-73
2023/08/17 11:08:34;;;;;;;6.35;2.78;;;24.30;99.90;;;;;;5011307;28;20105;-74
2023/08/17 11:11:09;;;;;;;6.78;3.03;;;24.40;99.90;;;;;;5005947;28;20422;-74
2023/08/17 11:13:37;;;;;;;7.80;2.88;;;24.40;99.90;;;;;;4996296;28;20030;-74
2023/08/17 11:16:04;;;;;;;6.93;2.65;;;24.40;99.90;;;;;;5000816;28;20034;-74
2023/08/17 11:18:34;;;;;;;9.07;2.85;;;24.40;99.90;;;;;;4991803;28;20061;-74
2023/08/17 11:21:03;;;;;;;7.72;2.80;;;24.60;99.90;;;;;;4997340;28;20355;-74
2023/08/17 11:23:30;;;;;;;8.00;2.63;;;24.80;99.90;;;;;;4994002;28;20026;-74
2023/08/17 11:25:56;;;;;;;5.65;2.55;;;25.00;99.90;;;;;;5004575;28;20018;-74
2023/08/17 11:28:22;;;;;;;7.32;2.33;;;25.20;99.90;;;;;;5001792;28;20469;-74
2023/08/17 11:31:01;;;;;;;5.32;2.67;;;25.30;99.90;;;;;;4999583;28;20026;-73
2023/08/17 11:33:28;;;;;;;4.35;2.38;;;25.50;99.90;;;;;;4991107;28;20027;-74
2023/08/17 11:35:55;;;;;;;6.65;2.90;;;25.70;99.90;;;;;;5006207;28;20117;-73
2023/08/17 11:38:21;;;;;;;9.85;2.72;;;25.70;99.90;;;;;;5001117;28;20015;-74
2023/08/17 11:40:47;;;;;;;9.95;2.67;;;25.80;99.90;;;;;;5014329;28;20032;-74
2023/08/17 11:43:13;;;;;;;8.60;3.00;;;25.80;99.90;;;;;;5003519;28;20029;-74
2023/08/17 11:45:39;;;;;;;6.95;2.70;;;25.70;99.90;;;;;;4990910;28;20089;-74
2023/08/17 11:48:05;;;;;;;9.45;2.63;;;25.70;99.90;;;;;;4995822;28;20448;-74
2023/08/17 11:50:31;;;;;;;8.43;2.85;;;25.80;99.90;;;;;;4989824;28;20142;-74
2023/08/17 11:53:00;;;;;;;9.73;2.80;;;25.70;99.90;;;;;;5006530;28;20026;-74
2023/08/17 11:55:26;;;;;;;10.50;2.70;;;25.80;99.90;;;;;;5002138;28;20085;-74
2023/08/17 11:57:53;;;;;;;8.55;2.67;;;25.70;99.90;;;;;;4982466;28;20032;-74
2023/08/17 12:00:20;;;;;;;7.72;2.70;;;25.60;99.90;;;;;;4992107;28;20042;-74
2023/08/17 12:02:53;;;;;;;6.07;2.47;;;25.60;99.90;;;;;;4989901;28;20088;-74
2023/08/17 12:05:26;;;;;;;6.05;2.58;;;25.60;99.90;;;;;;4989034;28;20088;-74
2023/08/17 12:07:55;;;;;;;7.93;2.67;;;25.50;99.90;;;;;;4997756;28;20477;-74
2023/08/17 12:10:22;;;;;;;9.27;2.80;;;25.50;99.90;;;;;;4989198;28;20113;-74
2023/08/17 12:12:48;;;;;;;7.85;2.60;;;25.50;99.90;;;;;;4992910;28;20030;-74
2023/08/17 12:15:16;;;;;;;8.02;3.10;;;25.50;99.90;;;;;;4986884;28;20034;-74
2023/08/17 12:17:46;;;;;;;8.68;3.22;;;25.50;99.90;;;;;;4987914;28;20035;-74
2023/08/17 12:20:20;;;;;;;7.88;2.72;;;25.50;99.90;;;;;;4989421;28;20034;-74
2023/08/17 12:22:48;;;;;;;9.48;2.83;;;25.50;99.90;;;;;;4989636;28;20374;-76
2023/08/17 12:25:15;;;;;;;10.93;3.15;;;25.60;99.90;;;;;;5004411;28;20034;-76
2023/08/17 12:27:41;;;;;;;8.55;2.75;;;25.60;99.90;;;;;;4986466;28;20486;-74
2023/08/17 12:30:24;;;;;;;10.57;2.75;;;25.50;99.90;;;;;;4984950;28;20027;-74
2023/08/17 12:32:49;;;;;;;6.78;2.70;;;25.50;99.90;;;;;;4982120;28;20030;-73
2023/08/17 12:35:15;;;;;;;9.43;2.80;;;25.50;99.90;;;;;;5003737;28;20045;-74
2023/08/17 12:37:41;;;;;;;7.63;2.92;;;25.30;99.90;;;;;;4998839;28;20026;-73
2023/08/17 12:40:08;;;;;;;8.00;3.00;;;25.20;99.90;;;;;;4999286;28;20022;-73
2023/08/17 12:42:33;;;;;;;9.07;3.22;;;25.20;99.90;;;;;;4994400;28;20446;-75
2023/08/17 12:44:59;;;;;;;10.20;3.20;;;25.00;99.90;;;;;;4987404;28;20050;-74